Montreal, Missouri
Current Conditions -  °F | °C
As of 6:35 AM on Monday 24 Nov 2014 (Local Time) from KH21 Reporting Station
Overcast Overcast  
Wind Chill: 26°   Ceiling: 2800
Heat Index: 36°   Visibility: 10mi
Dew Point: 28°   Wind: 15mph
Humidity: 75%   Direction: 260°W
Pressure: 29.63"   Gusts: 25mph
Location:  37.97°N, 92.59°W
Report Text: KH21 241235Z AUTO 26013G22KT 10SM OVC028 02/M02 A2963 RMK AO2
Loading
Personal Weather Stations






























Interactive Weather Map New forecast layout! Learn more

10-Day Weather Forecast

Advertisements
Track Severe Weather on mobile